sensor_id;sensor_type;location;lat;lon;timestamp;pressure;altitude;pressure_sealevel;temperature;humidity
84957;BME280;75252;45.438;-73.814;2024-03-02T00:00:07;102714.41;;;-2.18;68.32
84957;BME280;75252;45.438;-73.814;2024-03-02T00:02:45;102716.81;;;-2.23;68.15
84957;BME280;75252;45.438;-73.814;2024-03-02T00:05:13;102714.16;;;-2.24;67.82
84957;BME280;75252;45.438;-73.814;2024-03-02T00:07:47;102706.81;;;-2.34;68.42
84957;BME280;75252;45.438;-73.814;2024-03-02T00:10:20;102719.81;;;-2.34;69.53
84957;BME280;75252;45.438;-73.814;2024-03-02T00:12:51;102722.41;;;-2.34;69.43
84957;BME280;75252;45.438;-73.814;2024-03-02T00:17:57;102708.88;;;-2.26;68.29
84957;BME280;75252;45.438;-73.814;2024-03-02T00:20:24;102711.22;;;-2.32;69.14
84957;BME280;75252;45.438;-73.814;2024-03-02T00:23:14;102709.75;;;-2.25;69.38
84957;BME280;75252;45.438;-73.814;2024-03-02T00:25:46;102707.63;;;-2.35;69.38
84957;BME280;75252;45.438;-73.814;2024-03-02T00:28:19;102704.06;;;-2.37;69.60
84957;BME280;75252;45.438;-73.814;2024-03-02T00:31:07;102702.31;;;-2.38;69.06
84957;BME280;75252;45.438;-73.814;2024-03-02T00:33:39;102703.97;;;-2.40;69.01
84957;BME280;75252;45.438;-73.814;2024-03-02T00:36:06;102704.72;;;-2.43;70.33
84957;BME280;75252;45.438;-73.814;2024-03-02T00:38:34;102706.88;;;-2.53;70.55
84957;BME280;75252;45.438;-73.814;2024-03-02T00:41:07;102692.88;;;-2.36;69.64
84957;BME280;75252;45.438;-73.814;2024-03-02T00:43:43;102698.38;;;-2.49;69.70
84957;BME280;75252;45.438;-73.814;2024-03-02T00:46:16;102688.84;;;-2.50;69.77
84957;BME280;75252;45.438;-73.814;2024-03-02T00:48:55;102700.72;;;-2.55;70.32
84957;BME280;75252;45.438;-73.814;2024-03-02T00:51:22;102694.22;;;-2.67;70.92
84957;BME280;75252;45.438;-73.814;2024-03-02T00:53:49;102685.03;;;-2.58;70.69
84957;BME280;75252;45.438;-73.814;2024-03-02T00:56:16;102689.28;;;-2.60;70.10
84957;BME280;75252;45.438;-73.814;2024-03-02T00:58:42;102690.81;;;-2.65;70.90
84957;BME280;75252;45.438;-73.814;2024-03-02T01:01:08;102681.97;;;-2.69;70.43
84957;BME280;75252;45.438;-73.814;2024-03-02T01:03:35;102683.03;;;-2.65;70.68
84957;BME280;75252;45.438;-73.814;2024-03-02T01:06:03;102677.44;;;-2.75;70.69
84957;BME280;75252;45.438;-73.814;2024-03-02T01:08:29;102674.72;;;-2.78;71.27
84957;BME280;75252;45.438;-73.814;2024-03-02T01:10:55;102671.97;;;-2.81;71.93
84957;BME280;75252;45.438;-73.814;2024-03-02T01:13:24;102673.50;;;-2.86;72.79
84957;BME280;75252;45.438;-73.814;2024-03-02T01:15:50;102669.22;;;-2.85;72.60
84957;BME280;75252;45.438;-73.814;2024-03-02T01:18:16;102658.19;;;-2.80;71.68
84957;BME280;75252;45.438;-73.814;2024-03-02T01:20:42;102670.09;;;-2.85;71.78
84957;BME280;75252;45.438;-73.814;2024-03-02T01:23:08;102659.25;;;-2.75;71.15
84957;BME280;75252;45.438;-73.814;2024-03-02T01:25:34;102666.69;;;-2.84;71.86
84957;BME280;75252;45.438;-73.814;2024-03-02T01:28:01;102660.41;;;-2.89;72.17
84957;BME280;75252;45.438;-73.814;2024-03-02T01:30:27;102655.53;;;-2.81;72.71
84957;BME280;75252;45.438;-73.814;2024-03-02T01:32:53;102650.22;;;-2.84;70.95
84957;BME280;75252;45.438;-73.814;2024-03-02T01:35:18;102650.78;;;-2.91;71.61
84957;BME280;75252;45.438;-73.814;2024-03-02T01:37:44;102646.94;;;-3.01;72.94
84957;BME280;75252;45.438;-73.814;2024-03-02T01:40:10;102650.44;;;-2.99;73.07
84957;BME280;75252;45.438;-73.814;2024-03-02T01:42:37;102643.25;;;-3.06;73.46
84957;BME280;75252;45.438;-73.814;2024-03-02T01:45:05;102633.63;;;-3.08;73.73
84957;BME280;75252;45.438;-73.814;2024-03-02T01:47:31;102637.75;;;-3.13;73.85
84957;BME280;75252;45.438;-73.814;2024-03-02T01:49:58;102635.88;;;-3.16;73.31
84957;BME280;75252;45.438;-73.814;2024-03-02T01:52:24;102628.09;;;-3.16;74.34
84957;BME280;75252;45.438;-73.814;2024-03-02T01:54:50;102632.75;;;-3.09;74.48
84957;BME280;75252;45.438;-73.814;2024-03-02T01:57:16;102632.50;;;-3.15;73.17
84957;BME280;75252;45.438;-73.814;2024-03-02T01:59:42;102623.56;;;-3.21;73.84
84957;BME280;75252;45.438;-73.814;2024-03-02T02:02:08;102629.56;;;-3.22;73.61
84957;BME280;75252;45.438;-73.814;2024-03-02T02:04:34;102621.72;;;-3.24;73.94
84957;BME280;75252;45.438;-73.814;2024-03-02T02:07:00;102615.78;;;-3.21;73.99
84957;BME280;75252;45.438;-73.814;2024-03-02T02:09:26;102618.09;;;-3.27;74.04
84957;BME280;75252;45.438;-73.814;2024-03-02T02:11:52;102617.22;;;-3.28;73.41
84957;BME280;75252;45.438;-73.814;2024-03-02T02:14:18;102620.69;;;-3.27;73.68
84957;BME280;75252;45.438;-73.814;2024-03-02T02:16:44;102612.13;;;-3.26;73.68
84957;BME280;75252;45.438;-73.814;2024-03-02T02:19:10;102617.34;;;-3.25;73.69
84957;BME280;75252;45.438;-73.814;2024-03-02T02:21:36;102611.69;;;-3.35;74.07
84957;BME280;75252;45.438;-73.814;2024-03-02T02:24:02;102603.13;;;-3.34;73.75
84957;BME280;75252;45.438;-73.814;2024-03-02T02:26:29;102607.34;;;-3.36;73.71
84957;BME280;75252;45.438;-73.814;2024-03-02T02:28:55;102594.13;;;-3.42;75.02
84957;BME280;75252;45.438;-73.814;2024-03-02T02:31:21;102596.03;;;-3.38;74.97
84957;BME280;75252;45.438;-73.814;2024-03-02T02:33:47;102590.56;;;-3.44;75.00
84957;BME280;75252;45.438;-73.814;2024-03-02T02:36:13;102586.28;;;-3.44;74.89
84957;BME280;75252;45.438;-73.814;2024-03-02T02:38:43;102580.91;;;-3.48;74.39
84957;BME280;75252;45.438;-73.814;2024-03-02T02:41:10;102572.22;;;-3.49;74.98
84957;BME280;75252;45.438;-73.814;2024-03-02T02:43:36;102566.09;;;-3.51;74.80
84957;BME280;75252;45.438;-73.814;2024-03-02T02:46:01;102562.06;;;-3.44;74.96
84957;BME280;75252;45.438;-73.814;2024-03-02T02:48:27;102560.28;;;-3.45;75.04
84957;BME280;75252;45.438;-73.814;2024-03-02T02:50:53;102552.44;;;-3.47;74.36
84957;BME280;75252;45.438;-73.814;2024-03-02T02:53:19;102545.34;;;-3.51;73.86
84957;BME280;75252;45.438;-73.814;2024-03-02T02:55:45;102546.50;;;-3.44;74.22
84957;BME280;75252;45.438;-73.814;2024-03-02T02:58:11;102547.31;;;-3.45;73.87
84957;BME280;75252;45.438;-73.814;2024-03-02T03:00:36;102550.75;;;-3.46;75.29
84957;BME280;75252;45.438;-73.814;2024-03-02T03:03:02;102545.91;;;-3.58;74.93
84957;BME280;75252;45.438;-73.814;2024-03-02T03:05:29;102554.44;;;-3.61;75.67
84957;BME280;75252;45.438;-73.814;2024-03-02T03:07:54;102549.47;;;-3.56;75.28
84957;BME280;75252;45.438;-73.814;2024-03-02T03:10:20;102558.78;;;-3.60;75.61
84957;BME280;75252;45.438;-73.814;2024-03-02T03:12:48;102557.97;;;-3.59;75.65
84957;BME280;75252;45.438;-73.814;2024-03-02T03:15:15;102560.31;;;-3.65;76.39
84957;BME280;75252;45.438;-73.814;2024-03-02T03:17:41;102552.31;;;-3.69;76.41
84957;BME280;75252;45.438;-73.814;2024-03-02T03:20:08;102559.31;;;-3.68;76.39
84957;BME280;75252;45.438;-73.814;2024-03-02T03:22:40;102563.66;;;-3.67;76.78
84957;BME280;75252;45.438;-73.814;2024-03-02T03:25:07;102559.16;;;-3.71;75.87
84957;BME280;75252;45.438;-73.814;2024-03-02T03:27:36;102562.53;;;-3.74;76.42
84957;BME280;75252;45.438;-73.814;2024-03-02T03:30:02;102565.66;;;-3.81;76.64
84957;BME280;75252;45.438;-73.814;2024-03-02T03:32:28;102574.25;;;-3.82;76.72
84957;BME280;75252;45.438;-73.814;2024-03-02T03:34:54;102578.53;;;-3.82;77.54
84957;BME280;75252;45.438;-73.814;2024-03-02T03:37:20;102576.06;;;-3.79;77.43
84957;BME280;75252;45.438;-73.814;2024-03-02T03:39:46;102573.00;;;-3.71;77.96
84957;BME280;75252;45.438;-73.814;2024-03-02T03:42:11;102580.38;;;-3.80;77.52
84957;BME280;75252;45.438;-73.814;2024-03-02T03:44:37;102579.56;;;-3.79;77.74
84957;BME280;75252;45.438;-73.814;2024-03-02T03:47:04;102581.13;;;-3.82;77.13
84957;BME280;75252;45.438;-73.814;2024-03-02T03:49:30;102581.88;;;-3.85;77.66
84957;BME280;75252;45.438;-73.814;2024-03-02T03:51:56;102574.03;;;-3.86;77.78
84957;BME280;75252;45.438;-73.814;2024-03-02T03:54:22;102574.31;;;-3.80;77.86
84957;BME280;75252;45.438;-73.814;2024-03-02T03:56:48;102580.44;;;-3.78;77.43
84957;BME280;75252;45.438;-73.814;2024-03-02T03:59:14;102571.25;;;-3.91;78.16
84957;BME280;75252;45.438;-73.814;2024-03-02T04:01:40;102567.69;;;-3.93;77.96
84957;BME280;75252;45.438;-73.814;2024-03-02T04:04:06;102562.78;;;-3.87;78.18
84957;BME280;75252;45.438;-73.814;2024-03-02T04:06:32;102555.22;;;-3.82;77.23
84957;BME280;75252;45.438;-73.814;2024-03-02T04:08:58;102552.41;;;-3.87;77.22
84957;BME280;75252;45.438;-73.814;2024-03-02T04:11:24;102559.25;;;-3.89;77.04
84957;BME280;75252;45.438;-73.814;2024-03-02T04:13:50;102554.88;;;-3.90;77.24
84957;BME280;75252;45.438;-73.814;2024-03-02T04:16:16;102560.19;;;-3.87;77.39
84957;BME280;75252;45.438;-73.814;2024-03-02T04:18:41;102555.69;;;-3.91;78.08
84957;BME280;75252;45.438;-73.814;2024-03-02T04:21:07;102544.72;;;-3.85;77.79
84957;BME280;75252;45.438;-73.814;2024-03-02T04:23:33;102548.88;;;-3.89;77.97
84957;BME280;75252;45.438;-73.814;2024-03-02T04:25:59;102552.72;;;-4.00;77.47
84957;BME280;75252;45.438;-73.814;2024-03-02T04:28:25;102555.97;;;-4.04;77.70
84957;BME280;75252;45.438;-73.814;2024-03-02T04:30:51;102554.75;;;-3.93;78.28
84957;BME280;75252;45.438;-73.814;2024-03-02T04:33:16;102550.25;;;-3.97;77.94
84957;BME280;75252;45.438;-73.814;2024-03-02T04:35:42;102549.50;;;-3.94;78.36
84957;BME280;75252;45.438;-73.814;2024-03-02T04:38:08;102555.31;;;-4.00;78.31
84957;BME280;75252;45.438;-73.814;2024-03-02T04:40:34;102557.06;;;-3.99;78.13
84957;BME280;75252;45.438;-73.814;2024-03-02T04:43:00;102554.69;;;-3.94;77.85
84957;BME280;75252;45.438;-73.814;2024-03-02T04:45:26;102556.88;;;-4.03;77.54
84957;BME280;75252;45.438;-73.814;2024-03-02T04:47:51;102556.78;;;-4.05;78.34
84957;BME280;75252;45.438;-73.814;2024-03-02T04:50:17;102557.69;;;-4.04;78.96
84957;BME280;75252;45.438;-73.814;2024-03-02T04:52:44;102548.16;;;-4.05;78.11
84957;BME280;75252;45.438;-73.814;2024-03-02T04:55:10;102547.13;;;-4.09;78.22
84957;BME280;75252;45.438;-73.814;2024-03-02T04:57:49;102549.34;;;-4.16;78.06
84957;BME280;75252;45.438;-73.814;2024-03-02T05:00:16;102552.09;;;-4.13;78.69
84957;BME280;75252;45.438;-73.814;2024-03-02T05:02:42;102550.13;;;-4.19;78.91
84957;BME280;75252;45.438;-73.814;2024-03-02T05:05:08;102555.16;;;-4.22;79.12
84957;BME280;75252;45.438;-73.814;2024-03-02T05:07:34;102543.91;;;-4.22;78.88
84957;BME280;75252;45.438;-73.814;2024-03-02T05:10:00;102550.88;;;-4.21;78.68
84957;BME280;75252;45.438;-73.814;2024-03-02T05:12:26;102548.63;;;-4.14;78.65
84957;BME280;75252;45.438;-73.814;2024-03-02T05:15:14;102555.16;;;-4.22;78.87
84957;BME280;75252;45.438;-73.814;2024-03-02T05:17:41;102546.47;;;-4.22;79.07
84957;BME280;75252;45.438;-73.814;2024-03-02T05:20:11;102548.56;;;-4.15;78.74
84957;BME280;75252;45.438;-73.814;2024-03-02T05:22:37;102549.44;;;-4.15;77.75
84957;BME280;75252;45.438;-73.814;2024-03-02T05:25:04;102550.19;;;-4.17;78.91
84957;BME280;75252;45.438;-73.814;2024-03-02T05:27:30;102556.84;;;-4.22;78.67
84957;BME280;75252;45.438;-73.814;2024-03-02T05:29:58;102548.50;;;-4.17;78.63
84957;BME280;75252;45.438;-73.814;2024-03-02T05:32:24;102548.41;;;-4.18;78.69
84957;BME280;75252;45.438;-73.814;2024-03-02T05:34:50;102546.47;;;-4.22;78.18
84957;BME280;75252;45.438;-73.814;2024-03-02T05:37:16;102548.66;;;-4.31;78.64
84957;BME280;75252;45.438;-73.814;2024-03-02T05:39:42;102550.59;;;-4.27;78.98
84957;BME280;75252;45.438;-73.814;2024-03-02T05:42:09;102553.06;;;-4.30;78.70
84957;BME280;75252;45.438;-73.814;2024-03-02T05:44:35;102548.00;;;-4.27;79.22
84957;BME280;75252;45.438;-73.814;2024-03-02T05:47:01;102543.78;;;-4.25;79.03
84957;BME280;75252;45.438;-73.814;2024-03-02T05:49:28;102542.25;;;-4.20;79.14
84957;BME280;75252;45.438;-73.814;2024-03-02T05:51:54;102552.50;;;-4.23;78.72
84957;BME280;75252;45.438;-73.814;2024-03-02T05:54:20;102548.59;;;-4.33;79.28
84957;BME280;75252;45.438;-73.814;2024-03-02T05:56:46;102543.38;;;-4.34;79.01
84957;BME280;75252;45.438;-73.814;2024-03-02T05:59:12;102543.56;;;-4.30;79.30
84957;BME280;75252;45.438;-73.814;2024-03-02T06:01:42;102546.75;;;-4.35;78.71
84957;BME280;75252;45.438;-73.814;2024-03-02T06:04:08;102544.63;;;-4.44;79.02
84957;BME280;75252;45.438;-73.814;2024-03-02T06:06:36;102534.22;;;-4.46;79.59
84957;BME280;75252;45.438;-73.814;2024-03-02T06:09:02;102536.00;;;-4.44;79.17
84957;BME280;75252;45.438;-73.814;2024-03-02T06:11:36;102531.16;;;-4.37;79.91
84957;BME280;75252;45.438;-73.814;2024-03-02T06:14:03;102520.31;;;-4.28;79.24
84957;BME280;75252;45.438;-73.814;2024-03-02T06:16:29;102518.06;;;-4.40;79.14
84957;BME280;75252;45.438;-73.814;2024-03-02T06:18:58;102524.06;;;-4.41;79.27
84957;BME280;75252;45.438;-73.814;2024-03-02T06:21:24;102514.63;;;-4.40;79.62
84957;BME280;75252;45.438;-73.814;2024-03-02T06:23:50;102516.16;;;-4.44;79.27
84957;BME280;75252;45.438;-73.814;2024-03-02T06:26:16;102512.88;;;-4.40;79.82
84957;BME280;75252;45.438;-73.814;2024-03-02T06:28:43;102511.13;;;-4.41;79.35
84957;BME280;75252;45.438;-73.814;2024-03-02T06:31:09;102517.03;;;-4.43;79.75
84957;BME280;75252;45.438;-73.814;2024-03-02T06:33:35;102511.34;;;-4.36;79.59
84957;BME280;75252;45.438;-73.814;2024-03-02T06:36:01;102503.59;;;-4.36;79.03
84957;BME280;75252;45.438;-73.814;2024-03-02T06:38:27;102508.75;;;-4.36;79.13
84957;BME280;75252;45.438;-73.814;2024-03-02T06:40:54;102509.56;;;-4.37;79.23
84957;BME280;75252;45.438;-73.814;2024-03-02T06:43:21;102507.03;;;-4.36;79.87
84957;BME280;75252;45.438;-73.814;2024-03-02T06:45:50;102505.50;;;-4.50;79.64
84957;BME280;75252;45.438;-73.814;2024-03-02T06:48:17;102504.66;;;-4.51;80.27
84957;BME280;75252;45.438;-73.814;2024-03-02T06:50:49;102506.34;;;-4.51;80.24
84957;BME280;75252;45.438;-73.814;2024-03-02T06:53:16;102497.00;;;-4.48;79.54
84957;BME280;75252;45.438;-73.814;2024-03-02T06:55:46;102498.94;;;-4.43;80.39
84957;BME280;75252;45.438;-73.814;2024-03-02T06:58:12;102501.38;;;-4.47;80.05
84957;BME280;75252;45.438;-73.814;2024-03-02T07:00:38;102498.03;;;-4.44;80.15
84957;BME280;75252;45.438;-73.814;2024-03-02T07:03:04;102500.44;;;-4.49;79.60
84957;BME280;75252;45.438;-73.814;2024-03-02T07:05:30;102499.25;;;-4.55;79.44
84957;BME280;75252;45.438;-73.814;2024-03-02T07:07:56;102485.31;;;-4.59;80.08
84957;BME280;75252;45.438;-73.814;2024-03-02T07:10:22;102482.94;;;-4.54;80.31
84957;BME280;75252;45.438;-73.814;2024-03-02T07:12:48;102484.97;;;-4.47;80.25
84957;BME280;75252;45.438;-73.814;2024-03-02T07:15:14;102489.81;;;-4.55;80.18
84957;BME280;75252;45.438;-73.814;2024-03-02T07:17:52;102478.44;;;-4.58;80.53
84957;BME280;75252;45.438;-73.814;2024-03-02T07:20:18;102478.50;;;-4.57;80.33
84957;BME280;75252;45.438;-73.814;2024-03-02T07:22:44;102476.13;;;-4.52;80.66
84957;BME280;75252;45.438;-73.814;2024-03-02T07:25:10;102462.75;;;-4.61;80.87
84957;BME280;75252;45.438;-73.814;2024-03-02T07:27:36;102476.19;;;-4.51;80.53
84957;BME280;75252;45.438;-73.814;2024-03-02T07:30:05;102480.00;;;-4.42;80.83
84957;BME280;75252;45.438;-73.814;2024-03-02T07:32:31;102474.34;;;-4.53;80.54
84957;BME280;75252;45.438;-73.814;2024-03-02T07:34:57;102475.22;;;-4.53;80.88
84957;BME280;75252;45.438;-73.814;2024-03-02T07:37:23;102470.56;;;-4.60;81.00
84957;BME280;75252;45.438;-73.814;2024-03-02T07:39:50;102471.53;;;-4.58;80.95
84957;BME280;75252;45.438;-73.814;2024-03-02T07:42:16;102476.59;;;-4.61;80.65
84957;BME280;75252;45.438;-73.814;2024-03-02T07:44:44;102478.28;;;-4.61;81.10
84957;BME280;75252;45.438;-73.814;2024-03-02T07:47:11;102481.03;;;-4.58;80.66
84957;BME280;75252;45.438;-73.814;2024-03-02T07:49:36;102474.00;;;-4.61;80.92
84957;BME280;75252;45.438;-73.814;2024-03-02T07:52:03;102466.28;;;-4.59;80.80
84957;BME280;75252;45.438;-73.814;2024-03-02T07:54:29;102468.06;;;-4.58;80.93
84957;BME280;75252;45.438;-73.814;2024-03-02T07:56:55;102464.72;;;-4.56;80.72
84957;BME280;75252;45.438;-73.814;2024-03-02T07:59:21;102463.69;;;-4.59;80.82
84957;BME280;75252;45.438;-73.814;2024-03-02T08:01:49;102463.69;;;-4.59;80.95
84957;BME280;75252;45.438;-73.814;2024-03-02T08:04:15;102455.72;;;-4.64;81.35
84957;BME280;75252;45.438;-73.814;2024-03-02T08:06:41;102459.81;;;-4.69;80.62
84957;BME280;75252;45.438;-73.814;2024-03-02T08:09:07;102453.97;;;-4.65;81.40
84957;BME280;75252;45.438;-73.814;2024-03-02T08:11:36;102460.72;;;-4.68;81.52
84957;BME280;75252;45.438;-73.814;2024-03-02T08:14:03;102463.19;;;-4.70;81.57
84957;BME280;75252;45.438;-73.814;2024-03-02T08:16:29;102465.88;;;-4.68;81.61
84957;BME280;75252;45.438;-73.814;2024-03-02T08:18:55;102464.38;;;-4.63;82.82
84957;BME280;75252;45.438;-73.814;2024-03-02T08:21:24;102462.75;;;-4.61;82.57
84957;BME280;75252;45.438;-73.814;2024-03-02T08:23:50;102464.38;;;-4.63;82.30
84957;BME280;75252;45.438;-73.814;2024-03-02T08:26:16;102466.16;;;-4.62;82.55
84957;BME280;75252;45.438;-73.814;2024-03-02T08:28:42;102463.63;;;-4.61;82.72
84957;BME280;75252;45.438;-73.814;2024-03-02T08:31:08;102461.41;;;-4.53;84.03
84957;BME280;75252;45.438;-73.814;2024-03-02T08:33:34;102470.38;;;-4.45;85.23
84957;BME280;75252;45.438;-73.814;2024-03-02T08:36:01;102472.91;;;-4.47;84.34
84957;BME280;75252;45.438;-73.814;2024-03-02T08:38:28;102468.22;;;-4.17;87.52
84957;BME280;75252;45.438;-73.814;2024-03-02T08:40:54;102478.47;;;-4.18;86.56
84957;BME280;75252;45.438;-73.814;2024-03-02T08:43:20;102472.63;;;-4.14;86.13
84957;BME280;75252;45.438;-73.814;2024-03-02T08:45:48;102479.16;;;-4.03;86.28
84957;BME280;75252;45.438;-73.814;2024-03-02T08:48:14;102475.91;;;-3.99;85.41
84957;BME280;75252;45.438;-73.814;2024-03-02T08:50:41;102482.13;;;-3.94;85.60
84957;BME280;75252;45.438;-73.814;2024-03-02T08:53:06;102485.13;;;-3.85;84.39
84957;BME280;75252;45.438;-73.814;2024-03-02T08:55:32;102491.34;;;-3.82;82.96
84957;BME280;75252;45.438;-73.814;2024-03-02T08:57:58;102491.25;;;-3.83;82.54
84957;BME280;75252;45.438;-73.814;2024-03-02T09:00:24;102486.78;;;-3.87;81.59
84957;BME280;75252;45.438;-73.814;2024-03-02T09:02:50;102494.69;;;-3.84;80.83
84957;BME280;75252;45.438;-73.814;2024-03-02T09:05:16;102495.25;;;-3.91;80.30
84957;BME280;75252;45.438;-73.814;2024-03-02T09:07:42;102498.78;;;-3.89;80.20
84957;BME280;75252;45.438;-73.814;2024-03-02T09:10:09;102495.56;;;-4.03;80.36
84957;BME280;75252;45.438;-73.814;2024-03-02T09:12:35;102494.97;;;-3.97;79.85
84957;BME280;75252;45.438;-73.814;2024-03-02T09:15:01;102488.44;;;-4.08;80.02
84957;BME280;75252;45.438;-73.814;2024-03-02T09:17:31;102497.03;;;-4.09;80.16
84957;BME280;75252;45.438;-73.814;2024-03-02T09:19:57;102500.31;;;-4.13;79.98
84957;BME280;75252;45.438;-73.814;2024-03-02T09:22:23;102491.38;;;-4.20;80.29
84957;BME280;75252;45.438;-73.814;2024-03-02T09:24:49;102494.09;;;-4.17;79.99
84957;BME280;75252;45.438;-73.814;2024-03-02T09:27:15;102505.16;;;-4.21;80.78
84957;BME280;75252;45.438;-73.814;2024-03-02T09:29:41;102503.41;;;-4.20;80.34
84957;BME280;75252;45.438;-73.814;2024-03-02T09:32:08;102497.16;;;-4.25;80.06
84957;BME280;75252;45.438;-73.814;2024-03-02T09:34:34;102505.94;;;-4.22;80.83
84957;BME280;75252;45.438;-73.814;2024-03-02T09:37:00;102503.69;;;-4.33;81.09
84957;BME280;75252;45.438;-73.814;2024-03-02T09:39:26;102498.91;;;-4.24;80.70
84957;BME280;75252;45.438;-73.814;2024-03-02T09:41:53;102503.09;;;-4.28;80.94
84957;BME280;75252;45.438;-73.814;2024-03-02T09:44:19;102500.16;;;-4.35;80.64
84957;BME280;75252;45.438;-73.814;2024-03-02T09:46:49;102499.34;;;-4.34;80.78
84957;BME280;75252;45.438;-73.814;2024-03-02T09:49:15;102502.41;;;-4.24;81.33
84957;BME280;75252;45.438;-73.814;2024-03-02T09:51:47;102493.22;;;-4.36;81.76
84957;BME280;75252;45.438;-73.814;2024-03-02T09:54:13;102492.00;;;-4.44;81.46
84957;BME280;75252;45.438;-73.814;2024-03-02T09:56:39;102489.69;;;-4.38;81.52
84957;BME280;75252;45.438;-73.814;2024-03-02T09:59:05;102482.94;;;-4.35;81.97
84957;BME280;75252;45.438;-73.814;2024-03-02T10:01:31;102488.56;;;-4.43;81.65
84957;BME280;75252;45.438;-73.814;2024-03-02T10:04:00;102493.34;;;-4.33;81.77
84957;BME280;75252;45.438;-73.814;2024-03-02T10:06:28;102483.94;;;-4.31;81.98
84957;BME280;75252;45.438;-73.814;2024-03-02T10:08:55;102486.31;;;-4.36;81.24
84957;BME280;75252;45.438;-73.814;2024-03-02T10:11:34;102485.19;;;-4.42;81.78
84957;BME280;75252;45.438;-73.814;2024-03-02T10:14:15;102477.25;;;-4.46;82.56
84957;BME280;75252;45.438;-73.814;2024-03-02T10:16:42;102479.84;;;-4.46;81.96
84957;BME280;75252;45.438;-73.814;2024-03-02T10:19:20;102485.03;;;-4.46;81.93
84957;BME280;75252;45.438;-73.814;2024-03-02T10:21:53;102490.53;;;-4.38;81.86
84957;BME280;75252;45.438;-73.814;2024-03-02T10:24:21;102485.09;;;-4.44;82.02
84957;BME280;75252;45.438;-73.814;2024-03-02T10:26:47;102485.69;;;-4.50;81.85
84957;BME280;75252;45.438;-73.814;2024-03-02T10:29:13;102489.75;;;-4.56;81.68
84957;BME280;75252;45.438;-73.814;2024-03-02T10:31:42;102487.56;;;-4.47;81.80
84957;BME280;75252;45.438;-73.814;2024-03-02T10:34:09;102498.72;;;-4.48;81.39
84957;BME280;75252;45.438;-73.814;2024-03-02T10:36:37;102487.56;;;-4.47;81.68
84957;BME280;75252;45.438;-73.814;2024-03-02T10:39:07;102488.34;;;-4.48;81.04
84957;BME280;75252;45.438;-73.814;2024-03-02T10:41:37;102487.28;;;-4.53;81.53
84957;BME280;75252;45.438;-73.814;2024-03-02T10:44:08;102491.50;;;-4.55;80.99
84957;BME280;75252;45.438;-73.814;2024-03-02T10:46:36;102486.38;;;-4.54;81.10
84957;BME280;75252;45.438;-73.814;2024-03-02T10:49:05;102495.72;;;-4.57;81.01
84957;BME280;75252;45.438;-73.814;2024-03-02T10:51:32;102489.88;;;-4.53;80.93
84957;BME280;75252;45.438;-73.814;2024-03-02T10:54:00;102486.19;;;-4.58;81.05
84957;BME280;75252;45.438;-73.814;2024-03-02T11:01:50;102490.19;;;-4.65;81.32
84957;BME280;75252;45.438;-73.814;2024-03-02T11:04:18;102490.13;;;-4.66;81.27
84957;BME280;75252;45.438;-73.814;2024-03-02T11:07:08;102498.34;;;-4.75;81.31
84957;BME280;75252;45.438;-73.814;2024-03-02T11:09:44;102490.53;;;-4.76;81.02
84957;BME280;75252;45.438;-73.814;2024-03-02T11:12:19;102496.44;;;-4.79;81.29
84957;BME280;75252;45.438;-73.814;2024-03-02T11:14:48;102495.03;;;-4.72;81.72
84957;BME280;75252;45.438;-73.814;2024-03-02T11:17:18;102495.75;;;-4.75;80.79
84957;BME280;75252;45.438;-73.814;2024-03-02T11:19:44;102488.00;;;-4.75;80.84
84957;BME280;75252;45.438;-73.814;2024-03-02T11:22:12;102487.66;;;-4.82;80.89
84957;BME280;75252;45.438;-73.814;2024-03-02T11:24:38;102478.25;;;-4.80;81.30
84957;BME280;75252;45.438;-73.814;2024-03-02T11:27:06;102478.94;;;-4.84;81.56
84957;BME280;75252;45.438;-73.814;2024-03-02T11:29:42;102485.78;;;-4.85;81.07
84957;BME280;75252;45.438;-73.814;2024-03-02T11:32:22;102475.50;;;-4.83;80.85
84957;BME280;75252;45.438;-73.814;2024-03-02T11:34:51;102479.88;;;-4.82;81.13
84957;BME280;75252;45.438;-73.814;2024-03-02T11:37:18;102487.59;;;-4.84;81.24
84957;BME280;75252;45.438;-73.814;2024-03-02T11:39:46;102479.50;;;-4.72;81.05
84957;BME280;75252;45.438;-73.814;2024-03-02T11:42:15;102485.41;;;-4.75;80.92
84957;BME280;75252;45.438;-73.814;2024-03-02T11:44:45;102489.06;;;-4.70;80.45
84957;BME280;75252;45.438;-73.814;2024-03-02T11:47:13;102466.44;;;-4.56;80.58
84957;BME280;75252;45.438;-73.814;2024-03-02T11:49:50;102469.63;;;-4.62;80.70
84957;BME280;75252;45.438;-73.814;2024-03-02T11:52:20;102476.25;;;-4.49;80.75
84957;BME280;75252;45.438;-73.814;2024-03-02T11:54:50;102463.03;;;-4.36;80.30
84957;BME280;75252;45.438;-73.814;2024-03-02T11:57:21;102476.91;;;-4.34;80.32
84957;BME280;75252;45.438;-73.814;2024-03-02T11:59:53;102464.41;;;-4.25;79.75
84957;BME280;75252;45.438;-73.814;2024-03-02T12:02:20;102457.66;;;-4.21;80.02
84957;BME280;75252;45.438;-73.814;2024-03-02T12:04:48;102454.75;;;-4.08;80.18
84957;BME280;75252;45.438;-73.814;2024-03-02T12:07:21;102450.59;;;-4.05;79.58
84957;BME280;75252;45.438;-73.814;2024-03-02T12:10:01;102452.91;;;-3.92;79.73
84957;BME280;75252;45.438;-73.814;2024-03-02T12:12:31;102451.44;;;-3.85;79.45
84957;BME280;75252;45.438;-73.814;2024-03-02T12:14:57;102442.53;;;-3.71;78.78
84957;BME280;75252;45.438;-73.814;2024-03-02T12:17:25;102443.44;;;-3.71;79.35
84957;BME280;75252;45.438;-73.814;2024-03-02T12:19:51;102441.09;;;-3.65;78.88
84957;BME280;75252;45.438;-73.814;2024-03-02T12:22:18;102440.44;;;-3.59;78.63
84957;BME280;75252;45.438;-73.814;2024-03-02T12:24:44;102437.09;;;-3.57;78.55
84957;BME280;75252;45.438;-73.814;2024-03-02T12:27:12;102439.69;;;-3.57;78.84
84957;BME280;75252;45.438;-73.814;2024-03-02T12:29:39;102437.34;;;-3.50;78.32
84957;BME280;75252;45.438;-73.814;2024-03-02T12:32:05;102446.13;;;-3.47;78.20
84957;BME280;75252;45.438;-73.814;2024-03-02T12:34:31;102453.31;;;-3.40;78.32
84957;BME280;75252;45.438;-73.814;2024-03-02T12:37:00;102453.56;;;-3.34;77.67
84957;BME280;75252;45.438;-73.814;2024-03-02T12:39:26;102448.81;;;-3.23;77.72